Time;durP1;ratioP1;P1;durP2;ratioP2;P2;SDS_P1;SDS_P2;PMS_P1;PMS_P2;Temp;Humidity;BMP_temperature;BMP_pressure;BME280_temperature;BME280_humidity;BME280_pressure;Samples;Min_cycle;Max_cycle;Signal;HPM_P1;HPM_P2
2022/07/11 00:02:14;;;;;;;4.03;1.08;;;13.50;99.90;;;;;;5008685;28;20040;-54
2022/07/11 00:04:42;;;;;;;4.85;1.17;;;13.50;99.90;;;;;;5005498;28;20299;-57
2022/07/11 00:07:10;;;;;;;6.93;1.30;;;13.40;99.90;;;;;;4991710;28;20559;-55
2022/07/11 00:09:37;;;;;;;2.08;0.90;;;13.30;99.90;;;;;;4995383;28;20849;-55
2022/07/11 00:12:04;;;;;;;2.35;1.00;;;13.20;99.90;;;;;;4994831;28;20041;-56
2022/07/11 00:14:31;;;;;;;3.78;1.38;;;13.20;99.90;;;;;;4986790;28;20148;-56
2022/07/11 00:16:58;;;;;;;;;;;13.10;99.90;;;;;;4987549;28;20040;-57
2022/07/11 00:19:25;;;;;;;12.25;1.45;;;13.10;99.90;;;;;;4987642;28;20179;-55
2022/07/11 00:21:52;;;;;;;4.10;1.45;;;13.00;99.90;;;;;;4990827;28;20952;-57
2022/07/11 00:24:21;;;;;;;3.72;1.48;;;13.00;99.90;;;;;;5004848;28;20308;-55
2022/07/11 00:26:48;;;;;;;5.95;1.40;;;12.90;99.90;;;;;;5006869;28;20262;-55
2022/07/11 00:29:16;;;;;;;4.93;1.30;;;12.90;99.90;;;;;;5008010;28;20133;-57
2022/07/11 00:31:44;;;;;;;8.18;1.42;;;12.90;99.90;;;;;;5008211;28;20194;-55
2022/07/11 00:34:11;;;;;;;5.80;1.50;;;12.90;99.90;;;;;;5005063;28;20582;-57
2022/07/11 00:36:38;;;;;;;10.20;1.50;;;12.80;99.90;;;;;;5008406;28;20394;-56
2022/07/11 00:39:05;;;;;;;4.40;1.55;;;12.80;99.90;;;;;;5007199;28;20036;-56
2022/07/11 00:41:32;;;;;;;9.10;1.30;;;12.80;99.90;;;;;;5009446;28;20236;-56
2022/07/11 00:44:01;;;;;;;3.08;1.35;;;12.80;99.90;;;;;;5009601;28;20075;-56
2022/07/11 00:46:29;;;;;;;5.38;1.30;;;12.80;99.90;;;;;;5004756;28;20041;-57
2022/07/11 00:48:57;;;;;;;4.70;1.40;;;12.80;99.90;;;;;;5008112;28;20056;-57
2022/07/11 00:51:25;;;;;;;3.10;1.25;;;12.80;99.90;;;;;;5006922;28;20072;-55
2022/07/11 00:53:55;;;;;;;6.35;1.17;;;12.80;99.90;;;;;;5007446;28;20475;-57
2022/07/11 00:56:28;;;;;;;2.45;0.85;;;12.90;99.90;;;;;;5005749;28;20051;-56
2022/07/11 00:58:56;;;;;;;3.13;0.90;;;12.90;99.90;;;;;;5007312;28;20047;-55
2022/07/11 01:01:23;;;;;;;6.30;1.52;;;13.00;99.90;;;;;;5007926;28;20344;-56
2022/07/11 01:03:50;;;;;;;5.30;1.10;;;12.90;99.90;;;;;;5004867;28;20056;-57
2022/07/11 01:06:17;;;;;;;3.40;1.23;;;13.00;99.90;;;;;;4998338;28;20056;-55
2022/07/11 01:08:44;;;;;;;4.47;1.17;;;13.00;99.90;;;;;;4987433;28;20224;-57
2022/07/11 01:11:15;;;;;;;2.00;1.08;;;13.00;99.90;;;;;;5001995;28;20183;-57
2022/07/11 01:13:43;;;;;;;2.15;0.90;;;13.00;99.90;;;;;;4987181;28;20037;-57
2022/07/11 01:16:16;;;;;;;6.70;1.35;;;13.10;99.90;;;;;;4986055;28;20356;-56
2022/07/11 01:18:46;;;;;;;3.15;1.00;;;13.10;99.90;;;;;;4987124;28;20041;-57
2022/07/11 01:21:40;;;;;;;8.52;1.38;;;13.10;99.90;;;;;;4986346;28;20348;-56
2022/07/11 01:24:09;;;;;;;3.75;1.20;;;13.10;99.90;;;;;;5003162;28;20592;-57
2022/07/11 01:26:36;;;;;;;8.45;1.45;;;13.10;99.90;;;;;;5005002;28;20051;-58
2022/07/11 01:29:11;;;;;;;2.80;1.13;;;13.10;99.90;;;;;;5007155;28;20144;-56
2022/07/11 01:31:40;;;;;;;4.97;1.20;;;13.10;99.90;;;;;;5008199;28;20586;-54
2022/07/11 01:34:07;;;;;;;2.38;0.93;;;13.10;99.90;;;;;;5004943;28;20820;-56
2022/07/11 01:36:35;;;;;;;3.60;1.20;;;13.10;99.90;;;;;;5007617;28;20551;-55
2022/07/11 01:39:02;;;;;;;1.20;0.93;;;13.00;99.90;;;;;;5004934;28;20968;-56
2022/07/11 01:41:29;;;;;;;5.95;1.05;;;13.00;99.90;;;;;;5007404;28;20999;-57
2022/07/11 01:43:56;;;;;;;2.78;1.00;;;13.00;99.90;;;;;;5006559;28;20051;-55
2022/07/11 01:46:23;;;;;;;;;;;12.90;99.90;;;;;;5007408;28;20060;-56
2022/07/11 01:48:50;;;;;;;1.58;0.80;;;12.80;99.90;;;;;;5005746;28;19948;-55
2022/07/11 01:51:18;;;;;;;4.18;1.67;;;12.80;99.90;;;;;;5008037;28;20036;-55
2022/07/11 01:53:45;;;;;;;2.42;0.88;;;12.70;99.90;;;;;;5001468;28;20578;-56
2022/07/11 01:56:12;;;;;;;3.42;1.30;;;12.70;99.90;;;;;;5006395;28;20032;-56
2022/07/11 01:58:51;;;;;;;3.72;1.65;;;12.60;99.90;;;;;;5022793;28;20049;-57
2022/07/11 02:01:18;;;;;;;;;;;12.50;99.90;;;;;;5009058;28;20606;-57
2022/07/11 02:03:45;;;;;;;3.70;1.00;;;12.50;99.90;;;;;;5006093;28;20439;-56
2022/07/11 02:06:13;;;;;;;5.45;1.35;;;12.50;99.90;;;;;;4998705;28;20297;-56
2022/07/11 02:08:40;;;;;;;4.60;1.23;;;12.40;99.90;;;;;;4985205;28;20701;-57
2022/07/11 02:11:07;;;;;;;6.03;1.13;;;12.40;99.90;;;;;;5001955;28;20540;-55
2022/07/11 02:13:34;;;;;;;3.97;1.70;;;12.30;99.90;;;;;;4988542;28;20406;-56
2022/07/11 02:16:02;;;;;;;6.53;1.30;;;12.30;99.90;;;;;;4984860;28;20563;-55
2022/07/11 02:18:29;;;;;;;5.07;1.20;;;12.20;99.90;;;;;;4986695;28;20095;-55
2022/07/11 02:20:57;;;;;;;3.60;1.20;;;12.20;99.90;;;;;;4986987;28;20064;-56
2022/07/11 02:23:24;;;;;;;5.40;1.60;;;12.20;99.90;;;;;;4993677;28;20041;-56
2022/07/11 02:25:51;;;;;;;4.28;1.30;;;12.10;99.90;;;;;;5001038;28;20165;-57
2022/07/11 02:28:19;;;;;;;2.63;1.42;;;12.10;99.90;;;;;;5006401;28;20037;-57
2022/07/11 02:30:46;;;;;;;2.70;1.23;;;12.10;99.90;;;;;;5005970;28;20788;-56
2022/07/11 02:33:16;;;;;;;4.40;1.20;;;12.00;99.90;;;;;;5006326;28;20043;-57
2022/07/11 02:35:45;;;;;;;4.90;1.20;;;12.00;99.90;;;;;;5006437;28;20044;-56
2022/07/11 02:38:14;;;;;;;2.85;1.38;;;12.00;99.90;;;;;;5003966;28;20063;-55
2022/07/11 02:40:44;;;;;;;2.88;1.33;;;11.90;99.90;;;;;;4992223;28;20060;-57
2022/07/11 02:43:11;;;;;;;3.70;1.58;;;11.90;99.90;;;;;;5009316;28;20791;-56
2022/07/11 02:45:38;;;;;;;;;;;11.90;99.90;;;;;;5003133;28;20138;-57
2022/07/11 02:48:06;;;;;;;2.38;1.08;;;11.90;99.90;;;;;;5007357;28;19920;-57
2022/07/11 02:50:33;;;;;;;3.42;1.50;;;11.90;99.90;;;;;;5007127;28;20151;-57
2022/07/11 02:53:01;;;;;;;4.18;1.58;;;11.90;99.90;;;;;;5008704;28;20041;-55
2022/07/11 02:55:28;;;;;;;4.18;1.77;;;11.90;99.90;;;;;;5009907;28;20549;-57
2022/07/11 02:57:55;;;;;;;3.22;1.30;;;11.80;99.90;;;;;;5009179;28;20048;-56
2022/07/11 03:00:22;;;;;;;;;;;11.90;99.90;;;;;;5011505;28;20139;-55
2022/07/11 03:02:50;;;;;;;2.33;1.20;;;11.80;99.90;;;;;;5008299;28;20035;-57
2022/07/11 03:05:17;;;;;;;2.90;1.30;;;11.80;99.90;;;;;;5010064;28;20093;-56
2022/07/11 03:07:44;;;;;;;2.22;1.20;;;11.70;99.90;;;;;;4986559;28;20070;-56
2022/07/11 03:10:11;;;;;;;3.47;1.05;;;11.70;99.90;;;;;;5001582;28;20235;-57
2022/07/11 03:12:39;;;;;;;2.28;1.27;;;11.70;99.90;;;;;;4992098;28;20707;-56
2022/07/11 03:15:06;;;;;;;7.07;1.70;;;11.70;99.90;;;;;;5002464;28;20206;-57
2022/07/11 03:17:35;;;;;;;4.88;1.80;;;11.70;99.90;;;;;;4989504;28;20355;-57
2022/07/11 03:20:06;;;;;;;8.00;1.63;;;11.60;99.90;;;;;;4985778;28;20769;-56
2022/07/11 03:22:34;;;;;;;1.70;1.27;;;11.60;99.90;;;;;;4992559;28;20292;-57
2022/07/11 03:25:05;;;;;;;4.57;1.50;;;11.60;99.90;;;;;;5010970;28;20200;-56
2022/07/11 03:27:33;;;;;;;2.67;1.33;;;11.50;99.90;;;;;;5006871;28;20278;-57
2022/07/11 03:30:00;;;;;;;9.10;2.47;;;11.40;99.90;;;;;;4991665;28;20063;-55
2022/07/11 03:32:27;;;;;;;5.78;1.38;;;11.40;99.90;;;;;;5007222;28;20052;-56
2022/07/11 03:37:41;;;;;;;3.88;1.65;;;11.40;99.90;;;;;;5008817;28;20029;-55
2022/07/11 03:40:09;;;;;;;3.58;1.88;;;11.40;99.90;;;;;;5006918;28;20048;-57
2022/07/11 03:42:36;;;;;;;3.33;1.88;;;11.40;99.90;;;;;;5011014;28;20041;-56
2022/07/11 03:45:04;;;;;;;;;;;11.30;99.90;;;;;;5008449;28;20033;-59
2022/07/11 03:47:32;;;;;;;3.25;1.38;;;11.30;99.90;;;;;;5007189;28;20039;-58
2022/07/11 03:50:00;;;;;;;2.03;1.58;;;11.30;99.90;;;;;;5019756;28;20037;-58
2022/07/11 03:52:27;;;;;;;1.95;1.38;;;11.30;99.90;;;;;;5008201;28;20894;-57
2022/07/11 03:54:55;;;;;;;3.13;1.88;;;11.30;99.90;;;;;;5024111;28;20498;-55
2022/07/11 03:57:22;;;;;;;1.65;1.35;;;11.30;99.90;;;;;;5008208;28;20472;-57
2022/07/11 03:59:49;;;;;;;2.58;1.70;;;11.30;99.90;;;;;;5008123;28;20348;-56
2022/07/11 04:02:16;;;;;;;2.42;1.67;;;11.30;99.90;;;;;;5006728;28;20598;-52
2022/07/11 04:04:43;;;;;;;1.85;1.60;;;11.30;99.90;;;;;;5006593;28;20044;-53
2022/07/11 04:07:10;;;;;;;3.35;1.65;;;11.30;99.90;;;;;;5005076;28;20044;-53
2022/07/11 04:09:37;;;;;;;3.42;1.48;;;11.40;99.90;;;;;;4997810;28;20619;-52
2022/07/11 04:12:04;;;;;;;3.40;2.03;;;11.40;99.90;;;;;;4984667;28;20598;-54
2022/07/11 04:14:31;;;;;;;3.72;1.85;;;11.40;99.90;;;;;;4986228;28;20041;-53
2022/07/11 04:16:58;;;;;;;4.20;1.65;;;11.50;99.90;;;;;;4988723;28;20797;-52
2022/07/11 04:19:26;;;;;;;6.95;1.80;;;11.50;99.90;;;;;;4988011;28;20287;-54
2022/07/11 04:21:53;;;;;;;2.83;1.77;;;11.60;99.90;;;;;;4989959;28;20211;-54
2022/07/11 04:24:20;;;;;;;4.72;1.63;;;11.60;99.90;;;;;;4986621;28;20053;-53
2022/07/11 04:26:47;;;;;;;6.63;1.90;;;11.60;99.90;;;;;;5016393;28;20037;-53
2022/07/11 04:29:14;;;;;;;6.00;1.80;;;11.70;99.90;;;;;;5004021;28;20448;-52
2022/07/11 04:31:41;;;;;;;;;;;11.70;99.90;;;;;;5007806;28;20940;-58
2022/07/11 04:34:08;;;;;;;2.75;1.73;;;11.80;99.90;;;;;;5007635;28;20627;-54
2022/07/11 04:36:35;;;;;;;7.15;2.42;;;11.80;99.90;;;;;;5007243;28;20142;-55
2022/07/11 04:39:02;;;;;;;5.43;1.63;;;11.90;99.90;;;;;;4989048;28;20793;-53
2022/07/11 04:41:30;;;;;;;2.17;1.98;;;11.90;99.90;;;;;;5023246;28;20555;-53
2022/07/11 04:43:56;;;;;;;;;;;12.00;99.90;;;;;;5006255;28;20593;-53
2022/07/11 04:46:24;;;;;;;3.78;1.50;;;12.00;99.90;;;;;;5009212;28;20006;-53
2022/07/11 04:48:51;;;;;;;6.35;2.20;;;12.10;99.90;;;;;;5005868;28;20068;-53
2022/07/11 04:51:19;;;;;;;8.52;2.08;;;12.10;99.90;;;;;;5006612;28;20137;-53
2022/07/11 04:53:46;;;;;;;3.75;1.92;;;12.10;99.90;;;;;;5007749;28;20166;-54
2022/07/11 04:56:13;;;;;;;2.25;1.90;;;12.20;99.90;;;;;;5006797;28;20040;-54
2022/07/11 04:58:40;;;;;;;4.15;2.55;;;12.20;99.90;;;;;;5008635;28;20040;-53
2022/07/11 05:01:07;;;;;;;1.88;1.45;;;12.20;99.90;;;;;;5007998;28;20047;-52
2022/07/11 05:03:35;;;;;;;5.57;2.00;;;12.30;99.90;;;;;;5009691;28;20285;-52
2022/07/11 05:06:03;;;;;;;5.53;1.83;;;12.30;99.90;;;;;;5017651;28;20616;-53
2022/07/11 05:08:31;;;;;;;3.85;2.00;;;12.40;99.90;;;;;;4997765;28;20045;-53
2022/07/11 05:10:58;;;;;;;1.88;1.50;;;12.40;99.90;;;;;;5017198;28;20045;-52
2022/07/11 05:13:25;;;;;;;3.28;1.60;;;12.50;99.90;;;;;;4987830;28;20071;-52
2022/07/11 05:15:52;;;;;;;2.33;2.10;;;12.60;99.90;;;;;;4987308;28;20037;-52
2022/07/11 05:18:19;;;;;;;4.50;2.10;;;12.60;99.90;;;;;;4989473;28;20302;-51
2022/07/11 05:20:48;;;;;;;4.93;2.10;;;12.70;99.90;;;;;;4986215;28;20045;-59
2022/07/11 05:23:15;;;;;;;2.42;1.98;;;12.70;99.90;;;;;;4994577;28;20103;-58
2022/07/11 05:25:43;;;;;;;5.35;1.80;;;12.80;99.90;;;;;;5005774;28;20044;-59
2022/07/11 05:28:10;;;;;;;2.65;1.95;;;12.80;99.90;;;;;;5004323;28;20443;-59
2022/07/11 05:30:37;;;;;;;5.63;2.65;;;12.90;99.90;;;;;;5022911;28;20146;-59
2022/07/11 05:33:04;;;;;;;3.10;2.05;;;12.90;99.90;;;;;;5004335;28;20040;-58
2022/07/11 05:35:31;;;;;;;5.13;2.30;;;13.00;99.90;;;;;;5008891;28;20036;-57
2022/07/11 05:37:58;;;;;;;3.85;2.03;;;13.00;99.90;;;;;;5006330;28;20199;-56
2022/07/11 05:40:25;;;;;;;6.63;2.10;;;13.10;99.90;;;;;;5004977;28;20048;-56
2022/07/11 05:42:52;;;;;;;3.15;1.80;;;13.10;99.90;;;;;;5022799;28;20033;-57
2022/07/11 05:45:20;;;;;;;1.90;1.52;;;13.20;99.90;;;;;;5006790;28;20051;-58
2022/07/11 05:47:46;;;;;;;;;;;13.30;99.90;;;;;;5009491;28;20044;-58
2022/07/11 05:50:14;;;;;;;5.38;1.98;;;13.30;99.90;;;;;;5017793;28;20129;-56
2022/07/11 05:52:41;;;;;;;11.73;2.70;;;13.40;99.90;;;;;;5009655;28;20037;-57
2022/07/11 05:55:08;;;;;;;6.72;1.90;;;13.50;99.90;;;;;;5004709;28;20040;-56
2022/07/11 05:57:42;;;;;;;3.88;1.80;;;13.50;99.90;;;;;;5006819;28;20735;-57
2022/07/11 06:00:10;;;;;;;5.80;1.92;;;13.60;99.90;;;;;;5006917;28;20033;-57
2022/07/11 06:02:37;;;;;;;4.38;2.67;;;13.60;99.90;;;;;;5007228;28;20041;-57
2022/07/11 06:05:04;;;;;;;4.13;1.52;;;13.70;99.90;;;;;;4992091;28;20217;-54
2022/07/11 06:10:27;;;;;;;8.15;1.83;;;13.90;99.90;;;;;;4988420;28;20126;-54
2022/07/11 06:12:55;;;;;;;5.20;1.95;;;14.00;99.90;;;;;;5016409;28;20483;-53
2022/07/11 06:15:22;;;;;;;3.38;1.88;;;14.10;99.90;;;;;;5004631;28;20107;-53
2022/07/11 06:17:49;;;;;;;3.70;1.88;;;14.10;99.90;;;;;;4986613;28;20324;-53
2022/07/11 06:20:16;;;;;;;3.72;2.03;;;14.20;99.90;;;;;;4985720;28;20132;-54
2022/07/11 06:22:44;;;;;;;8.48;2.33;;;14.30;99.90;;;;;;5002452;28;20186;-54
2022/07/11 06:25:11;;;;;;;4.95;1.65;;;14.40;99.90;;;;;;4991478;28;20065;-57
2022/07/11 06:27:38;;;;;;;7.60;1.83;;;14.50;99.90;;;;;;4994009;28;20036;-58
2022/07/11 06:30:06;;;;;;;2.55;1.73;;;14.60;99.90;;;;;;5004787;28;20431;-58
2022/07/11 06:32:33;;;;;;;2.25;1.45;;;14.60;99.90;;;;;;5011972;28;20447;-56
2022/07/11 06:35:01;;;;;;;2.63;1.65;;;14.70;99.90;;;;;;5008070;28;20066;-57
2022/07/11 06:37:28;;;;;;;3.53;1.50;;;14.80;99.90;;;;;;5024006;28;20562;-56
2022/07/11 06:39:55;;;;;;;4.78;1.75;;;15.00;99.90;;;;;;5011125;28;20048;-56
2022/07/11 06:42:22;;;;;;;4.50;1.50;;;15.10;99.90;;;;;;4991313;28;20047;-56
2022/07/11 06:44:55;;;;;;;3.55;1.90;;;15.30;99.90;;;;;;5028407;28;20107;-55
2022/07/11 06:47:22;;;;;;;7.22;1.70;;;15.40;99.90;;;;;;5013269;28;20822;-57
2022/07/11 06:49:49;;;;;;;4.40;1.55;;;15.60;99.90;;;;;;5012423;28;20145;-56
2022/07/11 06:52:16;;;;;;;4.90;2.00;;;15.70;99.90;;;;;;5010194;28;20107;-55
2022/07/11 06:54:43;;;;;;;1.48;1.13;;;15.80;99.90;;;;;;5009851;28;20036;-56
2022/07/11 06:57:10;;;;;;;3.53;1.45;;;15.90;99.90;;;;;;5014314;28;20048;-54
2022/07/11 06:59:39;;;;;;;6.80;1.95;;;16.00;99.90;;;;;;5012343;28;20712;-55
2022/07/11 07:02:06;;;;;;;3.00;1.52;;;16.10;99.90;;;;;;5012865;28;20545;-55
2022/07/11 07:04:34;;;;;;;4.53;1.75;;;16.30;99.90;;;;;;5013151;28;20322;-55
2022/07/11 07:07:02;;;;;;;3.50;1.40;;;16.40;99.90;;;;;;4993695;28;20041;-55
2022/07/11 07:09:29;;;;;;;7.05;1.92;;;16.50;99.90;;;;;;5014782;28;20559;-57
2022/07/11 07:11:56;;;;;;;7.32;1.67;;;16.60;99.90;;;;;;5006441;28;20212;-56
2022/07/11 07:14:25;;;;;;;2.72;1.40;;;16.80;99.90;;;;;;5011451;28;20032;-58
2022/07/11 07:16:51;;;;;;;5.65;1.30;;;16.90;99.90;;;;;;5012281;28;20551;-56
2022/07/11 07:19:18;;;;;;;4.65;1.50;;;16.90;99.90;;;;;;5011149;28;20517;-59
2022/07/11 07:21:46;;;;;;;4.45;1.50;;;17.00;99.90;;;;;;5015951;28;20047;-57
2022/07/11 07:24:13;;;;;;;3.80;1.23;;;17.10;99.90;;;;;;5007628;28;20247;-57
2022/07/11 07:26:44;;;;;;;5.05;1.30;;;17.20;99.90;;;;;;5014429;28;20562;-53
2022/07/11 07:29:11;;;;;;;4.50;1.20;;;17.30;99.90;;;;;;5008035;28;20667;-56
2022/07/11 07:31:39;;;;;;;7.32;1.50;;;17.40;99.90;;;;;;5007113;28;20078;-57
2022/07/11 07:34:08;;;;;;;5.65;1.38;;;17.40;99.90;;;;;;5011083;28;20128;-59
2022/07/11 07:36:35;;;;;;;3.72;2.05;;;17.50;99.90;;;;;;5010358;28;20582;-55
2022/07/11 07:39:03;;;;;;;3.20;1.45;;;17.60;99.90;;;;;;5024715;28;20382;-57
2022/07/11 07:41:30;;;;;;;4.40;1.85;;;17.60;99.90;;;;;;5011868;28;20032;-57
2022/07/11 07:43:58;;;;;;;2.78;1.48;;;17.70;99.90;;;;;;5009967;28;20048;-57
2022/07/11 07:46:26;;;;;;;5.03;1.80;;;17.80;99.90;;;;;;5009807;28;20373;-56
2022/07/11 07:48:53;;;;;;;6.55;2.10;;;17.90;99.90;;;;;;5010483;28;20051;-58
2022/07/11 07:51:21;;;;;;;6.93;2.40;;;17.90;99.90;;;;;;5009310;28;20222;-60
2022/07/11 07:53:49;;;;;;;2.63;1.65;;;18.00;99.90;;;;;;5022859;28;20535;-55
2022/07/11 07:56:23;;;;;;;7.22;1.63;;;18.10;99.90;;;;;;4990065;28;20920;-57
2022/07/11 07:58:53;;;;;;;4.68;1.65;;;18.20;99.90;;;;;;4990904;28;20044;-58
2022/07/11 08:01:36;;;;;;;3.95;1.52;;;18.30;99.90;;;;;;4984754;28;20047;-55
2022/07/11 08:04:05;;;;;;;5.75;1.20;;;18.30;99.90;;;;;;4990365;28;20033;-56
2022/07/11 08:06:33;;;;;;;3.67;1.30;;;18.30;99.90;;;;;;4997648;28;20033;-55
2022/07/11 08:09:00;;;;;;;7.53;1.50;;;18.50;99.90;;;;;;4994243;28;20044;-58
2022/07/11 08:11:28;;;;;;;3.83;0.93;;;18.60;99.90;;;;;;4999188;28;20299;-57
2022/07/11 08:13:58;;;;;;;4.60;1.75;;;18.60;99.90;;;;;;4988664;28;20044;-56
2022/07/11 08:16:28;;;;;;;3.83;1.65;;;18.70;99.90;;;;;;4984772;28;20040;-56
2022/07/11 08:18:59;;;;;;;5.63;1.70;;;18.90;99.90;;;;;;4986658;28;20037;-57
2022/07/11 08:21:30;;;;;;;5.30;1.23;;;19.00;99.90;;;;;;4992658;28;20048;-56
2022/07/11 08:23:58;;;;;;;6.28;1.25;;;19.10;99.90;;;;;;5007711;28;20047;-56
2022/07/11 08:26:25;;;;;;;2.28;1.13;;;19.30;99.90;;;;;;5009153;28;20048;-57
2022/07/11 08:29:00;;;;;;;3.13;1.10;;;19.60;99.90;;;;;;4998609;28;20047;-58
2022/07/11 08:31:28;;;;;;;3.83;1.10;;;19.80;99.90;;;;;;5002977;28;20735;-58
2022/07/11 08:33:57;;;;;;;5.28;1.55;;;20.00;99.90;;;;;;5010330;28;20036;-58
2022/07/11 08:36:25;;;;;;;5.18;1.13;;;20.30;99.90;;;;;;5003817;28;20193;-58
2022/07/11 08:38:52;;;;;;;5.45;1.63;;;20.50;98.40;;;;;;5009616;28;20040;-56
2022/07/11 08:41:19;;;;;;;3.50;1.20;;;20.70;94.10;;;;;;5000326;28;20514;-58
2022/07/11 08:43:47;;;;;;;4.32;1.35;;;20.90;93.50;;;;;;4986783;28;20059;-58
2022/07/11 08:46:14;;;;;;;5.25;1.15;;;21.00;85.80;;;;;;4986661;28;20229;-58
2022/07/11 08:48:43;;;;;;;3.72;1.38;;;21.10;82.70;;;;;;4983561;28;20045;-58
2022/07/11 08:51:10;;;;;;;4.22;1.30;;;21.20;84.10;;;;;;4990141;28;20051;-59
2022/07/11 08:53:44;;;;;;;1.77;0.90;;;21.20;82.00;;;;;;4984430;28;20822;-69
2022/07/11 08:56:17;;;;;;;8.50;1.65;;;21.40;85.40;;;;;;5002346;28;20743;-63
2022/07/11 08:58:46;;;;;;;4.78;2.38;;;21.50;80.40;;;;;;4984687;28;20052;-63
2022/07/11 09:01:28;;;;;;;2.92;1.00;;;21.60;76.40;;;;;;4985725;28;20329;-63
2022/07/11 09:03:56;;;;;;;4.93;1.20;;;21.70;81.90;;;;;;4984674;28;20060;-63
2022/07/11 09:06:23;;;;;;;6.15;1.42;;;21.80;78.90;;;;;;4969807;28;20058;-63
2022/07/11 09:08:50;;;;;;;5.72;1.33;;;22.00;75.40;;;;;;4987402;28;20111;-63
2022/07/11 09:11:18;;;;;;;5.05;1.10;;;22.10;73.90;;;;;;5006497;28;20044;-62
2022/07/11 09:13:45;;;;;;;5.90;0.90;;;22.10;75.40;;;;;;4995814;28;20045;-63
2022/07/11 09:16:13;;;;;;;2.80;0.95;;;22.20;71.90;;;;;;4985173;28;20163;-63
2022/07/11 09:18:41;;;;;;;5.32;1.23;;;22.40;70.30;;;;;;4987868;28;20037;-64
2022/07/11 09:26:50;;;;;;;2.35;1.00;;;22.80;69.80;;;;;;4990721;28;20041;-64
2022/07/11 09:29:24;;;;;;;3.90;1.27;;;22.80;69.80;;;;;;4984706;28;20126;-63
2022/07/11 09:31:51;;;;;;;3.83;1.25;;;22.90;68.20;;;;;;5002555;28;20121;-64
2022/07/11 09:34:23;;;;;;;7.90;1.42;;;23.00;65.50;;;;;;4983100;28;20438;-62
2022/07/11 09:36:54;;;;;;;3.50;1.20;;;23.10;69.00;;;;;;5005725;28;20052;-63
2022/07/11 09:39:26;;;;;;;4.18;1.20;;;23.10;63.40;;;;;;4988392;28;20411;-63
2022/07/11 09:41:55;;;;;;;3.17;1.30;;;23.30;65.00;;;;;;4988733;28;20037;-63
2022/07/11 09:44:26;;;;;;;4.30;1.20;;;23.30;63.50;;;;;;4968935;28;20872;-63
2022/07/11 09:46:58;;;;;;;1.58;0.80;;;23.40;65.50;;;;;;4986995;28;20724;-62
2022/07/11 09:49:37;;;;;;;9.52;1.30;;;23.50;66.20;;;;;;4986467;28;20590;-64
2022/07/11 09:52:16;;;;;;;3.47;1.08;;;23.60;63.10;;;;;;4984880;28;20033;-65
2022/07/11 09:55:00;;;;;;;2.45;1.20;;;23.80;63.10;;;;;;4989094;28;20218;-64
2022/07/11 09:57:29;;;;;;;4.63;1.73;;;23.90;62.20;;;;;;4988851;28;20048;-64
2022/07/11 09:59:56;;;;;;;3.17;1.05;;;24.10;60.60;;;;;;4988693;28;20090;-64
2022/07/11 10:02:24;;;;;;;4.20;1.45;;;24.20;58.50;;;;;;4992581;28;20320;-64
2022/07/11 10:04:52;;;;;;;2.35;1.13;;;24.20;60.30;;;;;;4997265;28;20355;-63
2022/07/11 10:07:20;;;;;;;2.78;1.00;;;24.30;57.40;;;;;;5023810;28;20151;-63
2022/07/11 10:09:47;;;;;;;3.17;1.17;;;24.30;58.90;;;;;;5007610;28;20953;-63
2022/07/11 10:12:15;;;;;;;3.38;1.10;;;24.40;59.40;;;;;;5014240;28;20055;-65
2022/07/11 10:14:43;;;;;;;3.50;1.15;;;24.40;59.10;;;;;;4991912;28;20562;-63
2022/07/11 10:17:25;;;;;;;4.72;1.20;;;24.40;57.90;;;;;;5003886;28;20687;-64
2022/07/11 10:20:07;;;;;;;4.65;1.10;;;24.60;58.70;;;;;;4990056;28;20193;-63
2022/07/11 10:22:52;;;;;;;2.15;1.48;;;24.70;58.50;;;;;;4989378;28;20052;-63
2022/07/11 10:25:35;;;;;;;3.72;1.40;;;24.80;56.10;;;;;;4990087;28;20048;-63
2022/07/11 10:28:21;;;;;;;3.13;1.30;;;25.00;57.80;;;;;;4987082;28;20053;-63
2022/07/11 10:30:52;;;;;;;5.82;1.27;;;25.10;55.80;;;;;;4991808;28;20547;-64
2022/07/11 10:33:19;;;;;;;4.78;1.50;;;25.20;55.20;;;;;;5001209;28;20060;-63
2022/07/11 10:35:49;;;;;;;5.60;1.48;;;25.20;54.60;;;;;;5011078;28;20765;-63
2022/07/11 10:38:18;;;;;;;2.70;1.08;;;25.20;55.80;;;;;;5009116;28;20075;-63
2022/07/11 10:40:48;;;;;;;1.98;0.95;;;25.20;56.20;;;;;;5005972;28;20885;-63
2022/07/11 10:43:22;;;;;;;3.17;1.15;;;25.20;57.10;;;;;;5012143;28;20240;-63
2022/07/11 10:46:07;;;;;;;3.50;1.30;;;25.30;56.90;;;;;;5005904;28;20044;-64
2022/07/11 10:48:55;;;;;;;20.38;1.80;;;25.30;57.40;;;;;;5011253;28;20043;-64
2022/07/11 10:51:33;;;;;;;4.53;1.10;;;25.40;55.90;;;;;;5008104;28;20185;-64
2022/07/11 10:54:42;;;;;;;2.90;1.25;;;25.30;54.60;;;;;;5009073;28;20147;-64
2022/07/11 10:57:49;;;;;;;1.80;1.20;;;25.30;55.40;;;;;;5007615;28;20895;-63
2022/07/11 11:00:21;;;;;;;7.93;1.20;;;25.30;57.10;;;;;;5008858;28;20201;-64
2022/07/11 11:03:04;;;;;;;1.27;1.00;;;25.40;54.70;;;;;;5009666;28;20744;-63
2022/07/11 11:05:47;;;;;;;2.05;0.98;;;25.60;55.70;;;;;;5008310;28;20044;-63
2022/07/11 11:08:34;;;;;;;3.30;1.50;;;25.70;57.30;;;;;;4985946;28;20115;-63
2022/07/11 11:11:05;;;;;;;3.17;1.25;;;25.80;55.80;;;;;;4994979;28;20154;-63
2022/07/11 11:13:37;;;;;;;3.20;1.10;;;25.80;54.20;;;;;;5014485;28;20060;-63
2022/07/11 11:16:22;;;;;;;2.42;1.50;;;25.80;54.20;;;;;;4988709;28;20052;-63
2022/07/11 11:18:49;;;;;;;4.60;1.00;;;25.90;57.10;;;;;;4992127;28;20399;-63
2022/07/11 11:21:19;;;;;;;2.83;1.23;;;25.80;54.80;;;;;;4988576;28;20126;-63
2022/07/11 11:24:06;;;;;;;6.45;1.30;;;25.70;55.40;;;;;;5004792;28;20139;-63
2022/07/11 11:26:48;;;;;;;4.90;1.40;;;25.60;56.00;;;;;;4988494;28;20041;-64
2022/07/11 11:29:25;;;;;;;6.93;1.42;;;25.60;56.50;;;;;;4985838;28;20340;-63
2022/07/11 11:31:55;;;;;;;8.27;1.20;;;25.70;56.20;;;;;;4991227;28;20041;-63
2022/07/11 11:34:22;;;;;;;4.90;1.42;;;25.60;55.00;;;;;;5000086;28;20044;-63
2022/07/11 11:36:59;;;;;;;4.13;1.30;;;25.60;56.40;;;;;;5010493;28;20555;-63
2022/07/11 11:39:30;;;;;;;4.32;1.23;;;25.60;57.80;;;;;;5006506;28;20032;-63
2022/07/11 11:42:12;;;;;;;1.70;1.23;;;25.60;54.60;;;;;;5007589;28;20589;-63
2022/07/11 11:44:55;;;;;;;2.47;1.15;;;25.70;53.00;;;;;;5007893;28;20048;-61
2022/07/11 11:47:23;;;;;;;5.63;1.17;;;25.70;55.20;;;;;;5008907;28;20055;-64
2022/07/11 11:49:51;;;;;;;3.35;1.17;;;25.80;56.00;;;;;;5007420;28;20037;-64
2022/07/11 11:52:19;;;;;;;2.20;1.10;;;25.80;55.10;;;;;;5023464;28;20044;-64
2022/07/11 11:54:55;;;;;;;5.70;1.20;;;25.90;55.50;;;;;;5010243;28;20574;-63
2022/07/11 11:57:24;;;;;;;3.80;1.10;;;25.90;56.10;;;;;;5008068;28;20158;-61
2022/07/11 11:59:52;;;;;;;3.13;1.40;;;26.00;55.30;;;;;;5023257;28;20352;-63
2022/07/11 12:02:28;;;;;;;2.92;1.17;;;26.10;53.70;;;;;;5010741;28;20043;-62
2022/07/11 12:04:56;;;;;;;3.75;1.05;;;26.10;54.70;;;;;;4988510;28;20067;-63
2022/07/11 12:07:29;;;;;;;5.88;1.52;;;26.20;56.30;;;;;;4994872;28;20452;-63
2022/07/11 12:09:59;;;;;;;1.77;0.93;;;26.30;55.80;;;;;;5013585;28;20912;-63
2022/07/11 12:12:44;;;;;;;4.07;1.67;;;26.40;53.20;;;;;;4991872;28;20041;-63
2022/07/11 12:15:26;;;;;;;4.18;1.35;;;26.50;53.70;;;;;;4986721;28;20065;-63
2022/07/11 12:18:00;;;;;;;2.75;1.15;;;26.60;53.50;;;;;;4985234;28;20037;-64
2022/07/11 12:20:38;;;;;;;1.63;1.08;;;26.70;55.00;;;;;;4987053;28;20033;-63
2022/07/11 12:23:07;;;;;;;6.38;1.63;;;26.70;53.30;;;;;;4987884;28;20078;-63
2022/07/11 12:25:44;;;;;;;3.22;1.50;;;26.50;53.10;;;;;;4989227;28;20620;-63
2022/07/11 12:28:14;;;;;;;4.20;1.35;;;26.50;52.20;;;;;;5009780;28;20856;-60
2022/07/11 12:30:41;;;;;;;3.05;1.20;;;26.50;52.10;;;;;;5011362;28;20037;-62
2022/07/11 12:33:11;;;;;;;4.93;1.38;;;26.60;51.90;;;;;;5003444;28;20301;-63
2022/07/11 12:35:57;;;;;;;5.18;1.30;;;26.60;51.80;;;;;;5003992;28;20037;-63
2022/07/11 12:38:25;;;;;;;1.83;1.02;;;26.60;52.30;;;;;;5006747;28;20039;-62
2022/07/11 12:41:03;;;;;;;7.15;1.23;;;26.70;52.70;;;;;;5007594;28;20555;-60
2022/07/11 12:46:32;;;;;;;3.65;1.35;;;26.50;51.90;;;;;;5006407;28;20145;-58
2022/07/11 12:49:04;;;;;;;0.90;0.90;;;26.30;50.80;;;;;;5007523;28;20599;-58
2022/07/11 12:51:39;;;;;;;2.65;1.33;;;26.20;51.70;;;;;;5005165;28;20222;-64
2022/07/11 12:54:09;;;;;;;3.78;1.02;;;26.20;54.30;;;;;;5010158;28;20040;-63
2022/07/11 12:56:37;;;;;;;2.97;0.98;;;26.30;55.60;;;;;;5010192;28;20214;-64
2022/07/11 12:59:06;;;;;;;2.00;0.85;;;26.40;53.90;;;;;;5004968;28;20648;-64
2022/07/11 13:01:56;;;;;;;2.58;1.00;;;26.50;53.10;;;;;;5025468;28;20186;-65
2022/07/11 13:04:39;;;;;;;2.22;1.02;;;26.50;53.20;;;;;;5021120;28;20043;-64
2022/07/11 13:10:17;;;;;;;4.43;1.20;;;26.20;52.10;;;;;;4989531;28;20053;-64
2022/07/11 13:12:47;;;;;;;4.25;1.10;;;25.90;52.20;;;;;;5003508;28;20062;-65
2022/07/11 13:15:17;;;;;;;4.88;0.80;;;25.80;52.90;;;;;;4970678;28;20337;-63
2022/07/11 13:17:47;;;;;;;9.18;1.05;;;25.80;53.80;;;;;;4999973;28;20641;-61
2022/07/11 13:20:21;;;;;;;4.07;1.17;;;25.80;53.30;;;;;;5006477;28;20371;-61